createdAt,value
2022-11-19T00:01:28.142Z,7.60
2022-11-19T00:03:55.175Z,7.45
2022-11-19T00:06:24.922Z,7.39
2022-11-19T00:08:52.849Z,7.31
2022-11-19T00:11:43.851Z,7.29
2022-11-19T00:14:12.957Z,7.34
2022-11-19T00:16:39.956Z,7.39
2022-11-19T00:19:07.146Z,7.38
2022-11-19T00:21:34.100Z,7.41
2022-11-19T00:24:01.018Z,7.42
2022-11-19T00:26:28.297Z,7.44
2022-11-19T00:28:55.815Z,7.42
2022-11-19T00:31:23.106Z,7.39
2022-11-19T00:33:54.874Z,7.32
2022-11-19T00:36:22.985Z,7.31
2022-11-19T00:38:50.057Z,7.31
2022-11-19T00:41:17.101Z,7.26
2022-11-19T00:43:50.251Z,7.27
2022-11-19T00:46:21.257Z,7.25
2022-11-19T00:48:49.666Z,7.57
2022-11-19T00:51:18.200Z,7.48
2022-11-19T00:53:45.495Z,7.47
2022-11-19T00:56:15.820Z,7.50
2022-11-19T00:58:43.666Z,7.53
2022-11-19T01:01:11.639Z,7.53
2022-11-19T01:03:40.742Z,7.57
2022-11-19T01:06:15.261Z,7.59
2022-11-19T01:08:46.072Z,7.55
2022-11-19T01:11:19.071Z,7.56
2022-11-19T01:13:46.866Z,7.59
2022-11-19T01:16:21.735Z,7.57
2022-11-19T01:18:51.046Z,7.55
2022-11-19T01:21:20.065Z,7.51
2022-11-19T01:23:48.298Z,7.55
2022-11-19T01:26:15.575Z,7.53
2022-11-19T01:28:43.167Z,7.51
2022-11-19T01:31:20.056Z,7.48
2022-11-19T01:33:47.919Z,7.48
2022-11-19T01:36:17.495Z,7.43
2022-11-19T01:38:50.767Z,7.46
2022-11-19T01:41:26.224Z,7.45
2022-11-19T01:43:59.449Z,7.44
2022-11-19T01:46:29.314Z,7.49
2022-11-19T01:49:20.715Z,7.49
2022-11-19T01:51:54.261Z,7.49
2022-11-19T01:54:26.777Z,7.55
2022-11-19T01:57:02.056Z,7.55
2022-11-19T01:59:31.656Z,7.50
2022-11-19T02:01:58.627Z,7.49
2022-11-19T02:04:27.045Z,7.47
2022-11-19T02:06:55.251Z,7.49
2022-11-19T02:09:23.178Z,7.47
2022-11-19T02:12:08.639Z,7.48
2022-11-19T02:15:11.497Z,7.54
2022-11-19T02:17:57.213Z,7.56
2022-11-19T02:20:41.818Z,7.59
2022-11-19T02:23:49.497Z,7.62
2022-11-19T02:26:35.579Z,7.66
2022-11-19T02:29:30.399Z,7.68
2022-11-19T02:32:19.154Z,7.70
2022-11-19T02:35:02.070Z,7.70
2022-11-19T02:37:56.940Z,7.65
2022-11-19T02:40:35.016Z,7.60
2022-11-19T02:43:09.905Z,7.58
2022-11-19T02:45:49.539Z,7.56
2022-11-19T02:48:35.024Z,7.52
2022-11-19T02:51:04.777Z,7.52
2022-11-19T02:53:31.803Z,7.47
2022-11-19T02:56:14.138Z,7.40
2022-11-19T02:59:08.968Z,7.36
2022-11-19T03:01:59.612Z,7.32
2022-11-19T03:04:31.225Z,7.27
2022-11-19T03:07:13.185Z,7.25
2022-11-19T03:09:44.625Z,7.17
2022-11-19T03:12:33.743Z,7.14
2022-11-19T03:15:34.135Z,7.11
2022-11-19T03:18:07.137Z,7.05
2022-11-19T03:20:41.592Z,7.12
2022-11-19T03:23:29.656Z,7.12
2022-11-19T03:26:24.582Z,7.06
2022-11-19T03:28:54.249Z,7.06
2022-11-19T03:31:24.127Z,7.05
2022-11-19T03:33:55.967Z,7.06
2022-11-19T03:36:40.536Z,7.07
2022-11-19T03:39:14.226Z,7.08
2022-11-19T03:41:44.514Z,7.08
2022-11-19T03:44:46.175Z,7.15
2022-11-19T03:47:30.528Z,7.15
2022-11-19T03:50:03.336Z,7.16
2022-11-19T03:52:30.355Z,7.15
2022-11-19T03:54:57.506Z,7.13
2022-11-19T03:57:26.547Z,7.18
2022-11-19T03:59:53.496Z,7.21
2022-11-19T04:02:20.616Z,7.25
2022-11-19T04:04:47.559Z,7.27
2022-11-19T04:07:17.937Z,7.28
2022-11-19T04:09:45.445Z,7.29
2022-11-19T04:12:20.979Z,7.32
2022-11-19T04:14:48.462Z,7.24
2022-11-19T04:17:16.996Z,7.24
2022-11-19T04:19:44.388Z,7.20
2022-11-19T04:22:11.743Z,7.19
2022-11-19T04:24:38.705Z,7.20
2022-11-19T04:27:05.713Z,7.29
2022-11-19T04:29:32.710Z,7.35
2022-11-19T04:31:59.617Z,7.34
2022-11-19T04:34:26.578Z,7.40
2022-11-19T04:36:53.655Z,7.40
2022-11-19T04:39:21.553Z,7.45
2022-11-19T04:41:48.722Z,7.45
2022-11-19T04:44:15.743Z,7.43
2022-11-19T04:46:42.659Z,7.42
2022-11-19T04:49:09.647Z,7.43
2022-11-19T04:51:36.615Z,7.46
2022-11-19T04:54:04.156Z,7.45
2022-11-19T04:56:31.020Z,7.46
2022-11-19T04:58:58.066Z,7.48
2022-11-19T05:01:25.030Z,7.53
2022-11-19T05:03:52.319Z,7.59
2022-11-19T05:06:19.251Z,7.60
2022-11-19T05:08:46.296Z,7.52
2022-11-19T05:11:13.464Z,7.49
2022-11-19T05:13:41.305Z,7.53
2022-11-19T05:16:08.480Z,7.52
2022-11-19T05:18:35.417Z,7.58
2022-11-19T05:21:02.378Z,7.60
2022-11-19T05:23:29.336Z,7.56
2022-11-19T05:25:56.271Z,7.59
2022-11-19T05:28:37.555Z,7.61
2022-11-19T05:31:05.976Z,7.71
2022-11-19T05:33:34.384Z,7.95
2022-11-19T05:36:03.003Z,7.95
2022-11-19T05:38:30.276Z,8.03
2022-11-19T05:40:57.389Z,7.91
2022-11-19T05:43:24.397Z,7.81
2022-11-19T05:45:51.746Z,7.72
2022-11-19T05:48:18.695Z,7.51
2022-11-19T05:50:45.575Z,7.65
2022-11-19T05:53:12.525Z,7.67
2022-11-19T05:55:39.563Z,7.68
2022-11-19T05:58:06.477Z,7.65
2022-11-19T06:00:33.476Z,7.68
2022-11-19T06:03:00.480Z,7.69
2022-11-19T06:05:27.692Z,7.67
2022-11-19T06:07:54.612Z,7.67
2022-11-19T06:10:22.116Z,7.67
2022-11-19T06:12:48.980Z,7.65
2022-11-19T06:15:15.975Z,7.71
2022-11-19T06:17:43.185Z,7.66
2022-11-19T06:20:11.390Z,7.65
2022-11-19T06:22:38.820Z,7.62
2022-11-19T06:25:08.086Z,7.57
2022-11-19T06:27:35.178Z,7.53
2022-11-19T06:30:03.707Z,7.49
2022-11-19T06:32:30.787Z,7.52
2022-11-19T06:34:58.110Z,7.50
2022-11-19T06:37:25.095Z,7.54
2022-11-19T06:39:52.136Z,7.55
2022-11-19T06:42:37.097Z,7.52
2022-11-19T06:45:13.029Z,7.56
2022-11-19T06:47:41.820Z,7.62
2022-11-19T06:50:11.346Z,7.68
2022-11-19T06:52:38.386Z,7.70
2022-11-19T06:55:05.780Z,7.72
2022-11-19T06:57:32.777Z,7.73
2022-11-19T06:59:59.697Z,7.76
2022-11-19T07:02:26.869Z,7.78
2022-11-19T07:04:53.795Z,7.76
2022-11-19T07:07:21.101Z,7.74
2022-11-19T07:09:48.111Z,7.74
2022-11-19T07:12:15.063Z,7.75
2022-11-19T07:14:42.169Z,7.71
2022-11-19T07:17:09.425Z,7.69
2022-11-19T07:19:36.322Z,7.68
2022-11-19T07:22:03.517Z,7.64
2022-11-19T07:24:30.453Z,7.68
2022-11-19T07:26:57.569Z,7.68
2022-11-19T07:29:24.517Z,7.68
2022-11-19T07:31:53.411Z,7.69
2022-11-19T07:34:20.802Z,7.72
2022-11-19T07:36:49.582Z,7.74
2022-11-19T07:39:17.819Z,7.73
2022-11-19T07:42:03.617Z,7.70
2022-11-19T07:44:33.208Z,7.68
2022-11-19T07:47:00.216Z,7.69
2022-11-19T07:49:27.336Z,7.70
2022-11-19T07:51:54.860Z,7.67
2022-11-19T07:54:21.990Z,7.64
2022-11-19T07:56:49.908Z,7.68
2022-11-19T07:59:17.667Z,7.69
2022-11-19T08:01:45.250Z,7.50
2022-11-19T08:04:12.347Z,7.65
2022-11-19T08:06:39.349Z,7.65
2022-11-19T08:09:06.328Z,7.64
2022-11-19T08:11:33.403Z,7.67
2022-11-19T08:14:02.229Z,7.68
2022-11-19T08:16:48.473Z,7.66
2022-11-19T08:19:16.895Z,7.64
2022-11-19T08:21:46.372Z,7.65
2022-11-19T08:24:15.023Z,7.66
2022-11-19T08:26:42.564Z,7.65
2022-11-19T08:29:15.745Z,7.65
2022-11-19T08:31:44.857Z,7.68
2022-11-19T08:34:11.717Z,7.73
2022-11-19T08:36:38.696Z,7.77
2022-11-19T08:39:06.935Z,7.80
2022-11-19T08:41:52.868Z,7.80
2022-11-19T08:44:20.963Z,7.83
2022-11-19T08:46:48.188Z,7.87
2022-11-19T08:49:15.177Z,7.91
2022-11-19T08:51:42.227Z,7.97
2022-11-19T08:54:09.538Z,8.03
2022-11-19T08:56:36.620Z,8.07
2022-11-19T08:59:04.110Z,8.07
2022-11-19T09:01:31.437Z,8.10
2022-11-19T09:03:59.104Z,8.11
2022-11-19T09:06:26.180Z,8.14
2022-11-19T09:08:53.147Z,8.22
2022-11-19T09:11:21.636Z,8.25
2022-11-19T09:13:48.993Z,8.22
2022-11-19T09:16:16.751Z,8.25
2022-11-19T09:18:43.726Z,8.17
2022-11-19T09:21:12.226Z,8.10
2022-11-19T09:23:39.958Z,8.10
2022-11-19T09:26:11.278Z,8.13
2022-11-19T09:28:38.630Z,8.15
2022-11-19T09:31:12.082Z,8.15
2022-11-19T09:33:42.497Z,8.22
2022-11-19T09:36:11.459Z,8.21
2022-11-19T09:38:40.588Z,8.23
2022-11-19T09:41:29.348Z,8.24
2022-11-19T09:44:33.519Z,8.26
2022-11-19T09:47:22.701Z,8.24
2022-11-19T09:50:19.042Z,8.21
2022-11-19T09:52:54.667Z,8.18
2022-11-19T09:55:32.296Z,8.17
2022-11-19T09:58:02.474Z,8.21
2022-11-19T10:00:31.989Z,8.21
2022-11-19T10:03:02.891Z,8.23
2022-11-19T10:05:44.670Z,8.22
2022-11-19T10:08:31.017Z,8.20
2022-11-19T10:11:32.339Z,8.18
2022-11-19T10:14:23.606Z,8.13
2022-11-19T10:17:08.126Z,8.14
2022-11-19T10:20:19.738Z,8.21
2022-11-19T10:23:08.855Z,8.26
2022-11-19T10:25:44.695Z,8.30
2022-11-19T10:28:21.439Z,8.30
2022-11-19T10:30:51.050Z,8.35
2022-11-19T10:33:37.735Z,8.31
2022-11-19T10:36:10.695Z,8.33
2022-11-19T10:39:10.715Z,8.34
2022-11-19T10:41:49.665Z,8.33
2022-11-19T10:44:41.393Z,8.38
2022-11-19T10:47:26.831Z,8.41
2022-11-19T10:49:55.077Z,8.41
2022-11-19T10:52:44.234Z,8.42
2022-11-19T10:55:17.393Z,8.46
2022-11-19T10:57:46.721Z,8.50
2022-11-19T11:00:14.455Z,8.48
2022-11-19T11:02:50.139Z,8.54
2022-11-19T11:05:19.100Z,8.59
2022-11-19T11:07:53.896Z,8.56
2022-11-19T11:10:36.615Z,8.55
2022-11-19T11:13:46.887Z,8.53
2022-11-19T11:16:20.347Z,8.48
2022-11-19T11:18:49.976Z,8.53
2022-11-19T11:21:29.655Z,8.62
2022-11-19T11:23:57.580Z,8.64
2022-11-19T11:26:27.824Z,8.74
2022-11-19T11:29:04.695Z,8.78
2022-11-19T11:31:36.228Z,8.81
2022-11-19T11:34:04.080Z,8.82
2022-11-19T11:36:34.987Z,8.81
2022-11-19T11:39:04.437Z,8.81
2022-11-19T11:44:35.974Z,8.81
2022-11-19T11:47:10.770Z,9.01
2022-11-19T11:49:41.563Z,9.03
2022-11-19T11:52:11.647Z,9.05
2022-11-19T11:54:54.515Z,9.10
2022-11-19T11:57:27.487Z,9.12
2022-11-19T11:59:54.945Z,9.13
2022-11-19T12:02:23.505Z,9.13
2022-11-19T12:04:51.905Z,9.06
2022-11-19T12:07:18.833Z,9.06
2022-11-19T12:10:10.216Z,9.08
2022-11-19T12:13:06.697Z,9.05
2022-11-19T12:15:59.817Z,9.04
2022-11-19T12:19:03.662Z,8.98
2022-11-19T12:21:49.504Z,8.92
2022-11-19T12:24:42.915Z,8.93
2022-11-19T12:27:28.927Z,8.92
2022-11-19T12:30:05.822Z,8.92
2022-11-19T12:32:54.055Z,8.93
2022-11-19T12:35:33.528Z,8.89
2022-11-19T12:38:21.746Z,8.90
2022-11-19T12:41:16.614Z,8.89
2022-11-19T12:43:57.703Z,8.86
2022-11-19T12:46:56.375Z,8.88
2022-11-19T12:49:25.976Z,8.90
2022-11-19T12:52:04.775Z,8.89
2022-11-19T12:54:59.735Z,8.88
2022-11-19T12:57:57.664Z,8.86
2022-11-19T13:00:26.617Z,8.87
2022-11-19T13:03:11.770Z,8.85
2022-11-19T13:05:53.992Z,8.86
2022-11-19T13:08:36.027Z,8.86
2022-11-19T13:11:06.297Z,8.84
2022-11-19T13:13:36.384Z,8.85
2022-11-19T13:16:09.986Z,8.85
2022-11-19T13:18:41.496Z,8.80
2022-11-19T13:21:30.695Z,8.80
2022-11-19T13:24:03.656Z,8.81
2022-11-19T13:26:34.424Z,8.86
2022-11-19T13:29:32.320Z,8.86
2022-11-19T13:32:16.196Z,8.76
2022-11-19T13:35:04.774Z,8.72
2022-11-19T13:37:55.358Z,8.69
2022-11-19T13:40:35.332Z,8.63
2022-11-19T13:43:36.462Z,8.60
2022-11-19T13:46:26.935Z,8.62
2022-11-19T13:48:53.815Z,8.62
2022-11-19T13:51:44.153Z,8.63
2022-11-19T13:54:43.895Z,8.64
2022-11-19T13:57:34.051Z,8.69
2022-11-19T14:00:30.116Z,8.73
2022-11-19T14:03:00.137Z,8.76
2022-11-19T14:06:04.297Z,8.76
2022-11-19T14:08:41.341Z,8.79
2022-11-19T14:11:32.752Z,8.87
2022-11-19T14:14:44.066Z,8.89
2022-11-19T14:18:06.856Z,8.92
2022-11-19T14:20:55.976Z,8.96
2022-11-19T14:24:04.922Z,9.00
2022-11-19T14:26:52.548Z,8.97
2022-11-19T14:29:25.657Z,8.95
2022-11-19T14:32:05.736Z,8.92
2022-11-19T14:34:35.660Z,8.88
2022-11-19T14:37:21.176Z,8.82
2022-11-19T14:40:14.762Z,8.78
2022-11-19T14:43:20.803Z,8.74
2022-11-19T14:46:03.407Z,8.72
2022-11-19T14:48:31.900Z,8.73
2022-11-19T14:51:30.298Z,8.74
2022-11-19T14:54:28.513Z,8.74
2022-11-19T14:57:23.722Z,8.70
2022-11-19T14:59:54.376Z,8.74
2022-11-19T15:02:38.086Z,8.79
2022-11-19T15:05:22.242Z,8.78
2022-11-19T15:08:13.004Z,8.80
2022-11-19T15:10:47.975Z,8.81
2022-11-19T15:13:26.616Z,8.85
2022-11-19T15:15:57.448Z,8.87
2022-11-19T15:19:02.775Z,8.89
2022-11-19T15:21:44.855Z,8.90
2022-11-19T15:24:46.051Z,8.85
2022-11-19T15:27:31.743Z,8.85
2022-11-19T15:30:21.246Z,8.87
2022-11-19T15:33:09.659Z,8.87
2022-11-19T15:36:04.014Z,8.85
2022-11-19T15:38:40.257Z,8.83
2022-11-19T15:41:13.016Z,8.85
2022-11-19T15:43:51.949Z,8.88
2022-11-19T15:46:39.096Z,8.90
2022-11-19T15:49:25.421Z,8.88
2022-11-19T15:52:04.530Z,8.83
2022-11-19T15:54:34.009Z,8.77
2022-11-19T15:57:05.823Z,8.75
2022-11-19T15:59:38.305Z,8.68
2022-11-19T16:02:15.914Z,8.67
2022-11-19T16:04:43.065Z,8.66
2022-11-19T16:07:10.999Z,8.62
2022-11-19T16:09:38.723Z,8.67
2022-11-19T16:12:24.665Z,8.69
2022-11-19T16:15:11.749Z,8.68
2022-11-19T16:17:46.296Z,8.68
2022-11-19T16:20:13.226Z,8.67
2022-11-19T16:23:00.728Z,8.63
2022-11-19T16:25:33.224Z,8.60
2022-11-19T16:28:19.666Z,8.54
2022-11-19T16:30:53.189Z,8.55
2022-11-19T16:33:26.131Z,8.56
2022-11-19T16:36:10.630Z,8.59
2022-11-19T16:38:43.214Z,8.62
2022-11-19T16:41:32.265Z,8.56
2022-11-19T16:44:03.357Z,8.42
2022-11-19T16:46:31.335Z,8.53
2022-11-19T16:48:59.958Z,8.49
2022-11-19T16:51:37.644Z,8.48
2022-11-19T16:54:11.007Z,8.42
2022-11-19T16:56:45.500Z,8.40
2022-11-19T16:59:24.095Z,8.35
2022-11-19T17:01:54.798Z,8.30
2022-11-19T17:04:27.104Z,8.28
2022-11-19T17:06:54.754Z,8.25
2022-11-19T17:09:43.940Z,8.22
2022-11-19T17:12:33.198Z,8.17
2022-11-19T17:15:08.398Z,8.13
2022-11-19T17:17:40.634Z,8.13
2022-11-19T17:20:30.596Z,8.15
2022-11-19T17:22:59.016Z,8.12
2022-11-19T17:25:26.639Z,8.11
2022-11-19T17:27:58.702Z,8.08
2022-11-19T17:30:33.655Z,8.03
2022-11-19T17:33:04.056Z,8.01
2022-11-19T17:35:37.456Z,8.01
2022-11-19T17:38:16.866Z,8.00
2022-11-19T17:41:12.836Z,8.01
2022-11-19T17:43:59.256Z,8.01
2022-11-19T17:46:28.943Z,8.00
2022-11-19T17:48:57.103Z,8.05
2022-11-19T17:51:26.516Z,8.04
2022-11-19T17:53:54.453Z,8.02
2022-11-19T17:56:27.743Z,8.04
2022-11-19T17:58:55.560Z,8.00
2022-11-19T18:01:23.188Z,7.98
2022-11-19T18:03:50.890Z,7.95
2022-11-19T18:06:18.734Z,7.85
2022-11-19T18:08:46.556Z,7.85
2022-11-19T18:11:16.988Z,7.80
2022-11-19T18:13:45.970Z,7.74
2022-11-19T18:16:21.457Z,7.65
2022-11-19T18:18:48.999Z,7.66
2022-11-19T18:21:18.240Z,7.66
2022-11-19T18:23:46.338Z,7.65
2022-11-19T18:26:15.219Z,7.65
2022-11-19T18:28:46.260Z,7.65
2022-11-19T18:31:19.340Z,7.64
2022-11-19T18:33:48.162Z,7.61
2022-11-19T18:36:15.878Z,7.61
2022-11-19T18:38:45.723Z,7.60
2022-11-19T18:41:16.343Z,7.54
2022-11-19T18:44:02.564Z,7.53
2022-11-19T18:46:29.977Z,7.56
2022-11-19T18:48:57.009Z,7.55
2022-11-19T18:51:25.664Z,7.60
2022-11-19T18:53:52.772Z,7.58
2022-11-19T18:56:20.397Z,7.60
2022-11-19T18:58:47.572Z,7.57
2022-11-19T19:01:16.471Z,7.57
2022-11-19T19:03:44.674Z,7.56
2022-11-19T19:06:12.375Z,7.54
2022-11-19T19:08:39.547Z,7.56
2022-11-19T19:11:27.600Z,7.55
2022-11-19T19:13:55.157Z,7.47
2022-11-19T19:16:23.012Z,7.48
2022-11-19T19:18:50.402Z,7.48
2022-11-19T19:21:21.968Z,7.35
2022-11-19T19:23:50.041Z,7.39
2022-11-19T19:26:18.379Z,7.31
2022-11-19T19:28:50.368Z,7.29
2022-11-19T19:31:21.699Z,7.20
2022-11-19T19:33:49.572Z,7.13
2022-11-19T19:36:18.176Z,7.13
2022-11-19T19:38:46.128Z,7.12
2022-11-19T19:41:16.471Z,7.10
2022-11-19T19:43:44.609Z,7.06
2022-11-19T19:46:15.886Z,7.06
2022-11-19T19:48:49.091Z,7.02
2022-11-19T19:51:17.718Z,7.01
2022-11-19T19:53:45.089Z,7.00
2022-11-19T19:56:20.448Z,6.95
2022-11-19T19:58:51.315Z,6.90
2022-11-19T20:01:21.396Z,6.87
2022-11-19T20:03:54.118Z,6.95
2022-11-19T20:06:23.864Z,6.96
2022-11-19T20:08:51.317Z,6.98
2022-11-19T20:11:24.140Z,6.95
2022-11-19T20:13:52.289Z,6.92
2022-11-19T20:16:24.847Z,6.93
2022-11-19T20:18:53.731Z,6.91
2022-11-19T20:21:24.848Z,6.89
2022-11-19T20:23:54.352Z,6.94
2022-11-19T20:26:30.046Z,6.95
2022-11-19T20:28:59.776Z,6.94
2022-11-19T20:31:28.749Z,6.96
2022-11-19T20:33:59.646Z,6.92
2022-11-19T20:36:29.632Z,6.88
2022-11-19T20:38:58.091Z,6.83
2022-11-19T20:41:45.567Z,6.83
2022-11-19T20:44:21.173Z,6.77
2022-11-19T20:46:53.727Z,6.73
2022-11-19T20:49:23.846Z,6.69
2022-11-19T20:51:52.758Z,6.66
2022-11-19T20:54:21.642Z,6.61
2022-11-19T20:56:49.884Z,6.70
2022-11-19T20:59:17.447Z,6.69
2022-11-19T21:01:45.111Z,6.72
2022-11-19T21:04:12.882Z,6.72
2022-11-19T21:06:40.126Z,6.70
2022-11-19T21:09:07.667Z,6.68
2022-11-19T21:11:35.097Z,6.69
2022-11-19T21:14:02.833Z,6.74
2022-11-19T21:16:30.192Z,6.77
2022-11-19T21:18:57.326Z,6.73
2022-11-19T21:21:25.220Z,6.75
2022-11-19T21:23:53.574Z,6.75
2022-11-19T21:26:25.683Z,6.64
2022-11-19T21:28:55.427Z,6.60
2022-11-19T21:31:42.638Z,6.57
2022-11-19T21:34:15.153Z,6.51
2022-11-19T21:36:43.417Z,6.45
2022-11-19T21:39:11.966Z,6.41
2022-11-19T21:41:39.158Z,6.34
2022-11-19T21:44:06.576Z,6.31
2022-11-19T21:46:34.457Z,6.29
2022-11-19T21:49:02.046Z,6.30
2022-11-19T21:51:29.315Z,6.23
2022-11-19T21:53:59.971Z,6.24
2022-11-19T21:56:28.184Z,6.20
2022-11-19T21:58:55.174Z,6.19
2022-11-19T22:01:22.541Z,6.20
2022-11-19T22:03:49.540Z,6.21
2022-11-19T22:06:16.533Z,6.20
2022-11-19T22:08:43.685Z,6.14
2022-11-19T22:11:30.515Z,6.12
2022-11-19T22:14:01.256Z,6.11
2022-11-19T22:16:28.803Z,6.12
2022-11-19T22:18:55.777Z,6.15
2022-11-19T22:21:22.733Z,6.18
2022-11-19T22:23:49.741Z,6.20
2022-11-19T22:26:16.793Z,6.21
2022-11-19T22:28:43.788Z,6.25
2022-11-19T22:31:11.091Z,6.26
2022-11-19T22:33:40.261Z,6.28
2022-11-19T22:36:10.676Z,6.27
2022-11-19T22:38:38.696Z,6.23
2022-11-19T22:41:09.124Z,6.23
2022-11-19T22:43:37.207Z,6.26
2022-11-19T22:46:04.492Z,6.21
2022-11-19T22:48:33.209Z,6.29
2022-11-19T22:51:05.519Z,6.29
2022-11-19T22:53:35.672Z,6.23
2022-11-19T22:56:07.805Z,6.25
2022-11-19T22:58:36.526Z,6.25
2022-11-19T23:01:04.709Z,6.23
2022-11-19T23:03:31.811Z,6.20
2022-11-19T23:05:59.589Z,6.18
2022-11-19T23:08:26.860Z,6.20
2022-11-19T23:11:01.842Z,6.20
2022-11-19T23:13:33.707Z,6.08
2022-11-19T23:16:13.489Z,6.01
2022-11-19T23:18:43.087Z,5.96
2022-11-19T23:21:13.429Z,5.95
2022-11-19T23:23:40.846Z,5.90
2022-11-19T23:26:09.886Z,5.93
2022-11-19T23:28:37.966Z,5.96
2022-11-19T23:31:07.947Z,5.99
2022-11-19T23:33:35.255Z,6.02
2022-11-19T23:36:07.645Z,6.03
2022-11-19T23:38:36.928Z,6.04
2022-11-19T23:41:05.560Z,6.00
2022-11-19T23:43:33.406Z,5.90
2022-11-19T23:46:07.631Z,5.87
2022-11-19T23:48:36.065Z,5.79
2022-11-19T23:51:08.382Z,5.68
2022-11-19T23:53:36.046Z,5.62
2022-11-19T23:56:03.746Z,5.52
2022-11-19T23:58:31.089Z,5.60
